Time;durP1;ratioP1;P1;durP2;ratioP2;P2;SDS_P1;SDS_P2;PMS_P1;PMS_P2;Temp;Humidity;BMP_temperature;BMP_pressure;BME280_temperature;BME280_humidity;BME280_pressure;Samples;Min_cycle;Max_cycle;Signal;HPM_P1;HPM_P2
2021/10/14 00:01:28;;;;;;;26.70;16.97;;;;;;;2.57;81.66;101473.38;1704600;82;20909;-76
2021/10/14 00:03:56;;;;;;;27.35;16.07;;;;;;;2.58;81.68;101466.59;1707569;82;20910;-76
2021/10/14 00:06:21;;;;;;;28.47;15.73;;;;;;;2.59;81.67;101470.87;1704005;82;20867;-76
2021/10/14 00:08:47;;;;;;;26.97;15.53;;;;;;;2.59;81.70;101466.64;1704440;82;20902;-76
2021/10/14 00:11:14;;;;;;;24.67;15.03;;;;;;;2.61;81.68;101471.76;1704670;82;20866;-76
2021/10/14 00:13:40;;;;;;;26.07;16.15;;;;;;;2.61;81.72;101466.23;1704827;82;20933;-76
2021/10/14 00:16:06;;;;;;;22.77;14.33;;;;;;;2.62;81.72;101467.11;1725316;82;21980;-76
2021/10/14 00:18:33;;;;;;;24.02;15.05;;;;;;;2.63;81.79;101464.59;1731268;82;45517;-76
2021/10/14 00:20:59;;;;;;;20.12;12.63;;;;;;;2.67;81.86;101457.90;1720498;82;21326;-76
2021/10/14 00:23:28;;;;;;;20.70;12.93;;;;;;;2.68;81.81;101458.35;1714603;82;21501;-76
2021/10/14 00:25:54;;;;;;;17.92;11.20;;;;;;;2.72;81.87;101456.76;1722133;82;20898;-76
2021/10/14 00:28:20;;;;;;;19.75;12.18;;;;;;;2.74;81.89;101453.42;1716407;82;21701;-76
2021/10/14 00:30:46;;;;;;;22.87;12.53;;;;;;;2.78;81.95;101456.94;1733523;82;21027;-76
2021/10/14 00:33:12;;;;;;;21.37;12.63;;;;;;;2.72;81.97;101435.05;1734774;81;21464;-76
2021/10/14 00:35:39;;;;;;;24.43;12.37;;;;;;;2.84;81.97;101456.70;1733957;81;21290;-76
2021/10/14 00:38:05;;;;;;;20.20;12.77;;;;;;;2.86;81.99;101458.89;1693398;83;20916;-76
2021/10/14 00:40:33;;;;;;;19.83;13.23;;;;;;;2.81;82.01;101443.84;1709635;82;22110;-76
2021/10/14 00:42:59;;;;;;;24.47;13.45;;;;;;;2.94;82.07;101461.67;1721097;82;21484;-76
2021/10/14 00:45:25;;;;;;;22.82;13.98;;;;;;;2.98;82.11;101463.48;1700048;84;20901;-76
2021/10/14 00:47:51;;;;;;;21.95;13.70;;;;;;;3.03;82.13;101459.78;1699972;83;21093;-76
2021/10/14 00:50:17;;;;;;;22.50;13.33;;;;;;;3.07;82.14;101462.47;1700520;83;20921;-76
2021/10/14 00:52:44;;;;;;;22.65;13.43;;;;;;;3.11;82.16;101462.14;1710491;80;21489;-76
2021/10/14 00:55:16;;;;;;;23.73;13.68;;;;;;;3.15;82.17;101454.58;1701445;82;20953;-76
2021/10/14 00:57:43;;;;;;;21.57;13.60;;;;;;;3.17;82.07;101440.15;1702594;83;20965;-76
2021/10/14 01:00:10;;;;;;;23.15;13.53;;;;;;;3.19;82.12;101433.39;1701812;83;20916;-76
2021/10/14 01:02:36;;;;;;;18.80;12.93;;;;;;;3.21;82.13;101422.80;1705614;83;21416;-76
2021/10/14 01:05:05;;;;;;;22.80;13.45;;;;;;;3.24;82.14;101416.91;1702451;83;20957;-76
2021/10/14 01:07:33;;;;;;;21.40;11.95;;;;;;;3.26;82.17;101412.28;1702007;84;21427;-76
2021/10/14 01:09:59;;;;;;;20.48;12.07;;;;;;;3.28;82.18;101416.16;1720661;83;21032;-76
2021/10/14 01:12:26;;;;;;;17.23;11.18;;;;;;;3.32;82.24;101421.81;1718297;82;21107;-76
2021/10/14 01:14:52;;;;;;;19.60;11.70;;;;;;;3.35;82.23;101414.63;1704539;83;21591;-76
2021/10/14 01:17:19;;;;;;;16.87;10.65;;;;;;;3.39;82.26;101412.20;1718418;83;20909;-76
2021/10/14 01:19:45;;;;;;;19.27;10.98;;;;;;;3.43;82.29;101413.14;1719156;82;21135;-76
2021/10/14 01:22:12;;;;;;;16.12;9.60;;;;;;;3.46;82.29;101409.39;1717848;82;21020;-76
2021/10/14 01:24:38;;;;;;;14.87;10.35;;;;;;;3.50;82.33;101415.90;1721537;81;25256;-76
2021/10/14 01:27:07;;;;;;;17.07;10.37;;;;;;;3.52;82.34;101411.69;1720551;82;20893;-76
2021/10/14 01:29:34;;;;;;;16.73;10.30;;;;;;;3.57;82.31;101409.25;1720538;82;21727;-76
2021/10/14 01:32:03;;;;;;;;;;;;;;;3.58;82.32;101409.70;1690441;83;20899;-76
2021/10/14 01:34:29;;;;;;;16.62;10.20;;;;;;;3.61;82.47;101414.48;1681298;85;20301;-76
2021/10/14 01:36:57;;;;;;;12.75;9.20;;;;;;;3.63;82.39;101412.83;1684103;84;20906;-76
2021/10/14 01:39:23;;;;;;;17.17;9.93;;;;;;;3.65;82.37;101410.27;1683750;84;20878;-76
2021/10/14 01:41:51;;;;;;;14.13;9.20;;;;;;;3.67;82.38;101415.02;1684364;84;20874;-76
2021/10/14 01:44:17;;;;;;;16.35;10.25;;;;;;;3.70;82.41;101413.81;1683597;83;20914;-76
2021/10/14 01:46:43;;;;;;;14.70;10.38;;;;;;;3.72;82.40;101414.71;1683658;84;20942;-76
2021/10/14 01:49:13;;;;;;;16.37;10.35;;;;;;;3.74;82.42;101411.78;1645628;85;20932;-76
2021/10/14 01:51:39;;;;;;;19.17;9.90;;;;;;;3.75;82.41;101404.55;1684199;84;20859;-76
2021/10/14 01:54:05;;;;;;;16.23;9.77;;;;;;;3.78;82.44;101405.91;1723263;82;21321;-76
2021/10/14 01:56:33;;;;;;;14.80;10.00;;;;;;;3.80;82.44;101400.83;1680163;84;20949;-76
2021/10/14 01:58:59;;;;;;;11.50;9.00;;;;;;;3.83;82.46;101408.58;1684434;84;20950;-76
2021/10/14 02:01:25;;;;;;;12.73;9.13;;;;;;;3.83;82.43;101405.61;1643152;86;20902;-76
2021/10/14 02:03:51;;;;;;;12.25;9.00;;;;;;;3.84;82.42;101404.78;1682418;83;21536;-76
2021/10/14 02:06:17;;;;;;;13.40;8.88;;;;;;;3.84;82.42;101397.11;1682500;84;21036;-76
2021/10/14 02:08:43;;;;;;;11.47;8.87;;;;;;;3.86;82.46;101404.41;1681999;83;21018;-76
2021/10/14 02:11:15;;;;;;;12.95;9.48;;;;;;;3.87;82.46;101401.02;1656359;85;21550;-76
2021/10/14 02:13:42;;;;;;;13.30;8.90;;;;;;;3.89;82.48;101406.17;1650517;85;21499;-76
2021/10/14 02:16:08;;;;;;;15.28;9.15;;;;;;;3.91;82.55;101406.66;1647567;85;21483;-76
2021/10/14 02:18:34;;;;;;;13.05;9.08;;;;;;;3.92;82.57;101405.83;1650803;85;21583;-76
2021/10/14 02:21:00;;;;;;;12.90;9.60;;;;;;;3.95;82.56;101414.86;1658733;85;21030;-76
2021/10/14 02:23:26;;;;;;;11.50;9.28;;;;;;;3.97;82.60;101417.04;1674052;84;20956;-76
2021/10/14 02:25:53;;;;;;;12.82;8.65;;;;;;;4.01;82.62;101428.22;1659192;85;21428;-76
2021/10/14 02:28:19;;;;;;;14.73;9.30;;;;;;;4.05;82.61;101427.45;1691033;82;20985;-76
2021/10/14 02:30:45;;;;;;;10.50;8.73;;;;;;;4.08;82.60;101424.11;1694211;83;21683;-76
2021/10/14 02:33:13;;;;;;;11.75;8.75;;;;;;;4.08;82.60;101422.83;1691669;83;21568;-76
2021/10/14 02:35:39;;;;;;;11.10;8.35;;;;;;;4.10;82.64;101433.55;1684631;84;21631;-76
2021/10/14 02:38:06;;;;;;;13.08;9.25;;;;;;;4.13;82.67;101427.22;1678624;84;21493;-76
2021/10/14 02:40:34;;;;;;;13.15;8.65;;;;;;;4.14;82.65;101425.11;1678499;84;21479;-76
2021/10/14 02:43:02;;;;;;;11.45;8.13;;;;;;;4.16;82.65;101423.87;1682645;84;21101;-76
2021/10/14 02:45:28;;;;;;;11.63;7.97;;;;;;;4.19;82.66;101427.75;1680842;84;20926;-76
2021/10/14 02:47:54;;;;;;;9.73;8.30;;;;;;;4.20;82.67;101425.22;1681049;84;21600;-76
2021/10/14 02:50:20;;;;;;;14.78;9.40;;;;;;;4.21;82.66;101425.67;1681042;84;21398;-76
2021/10/14 02:52:46;;;;;;;10.08;8.30;;;;;;;4.23;82.68;101414.19;1681012;84;20942;-76
2021/10/14 02:55:13;;;;;;;10.50;8.43;;;;;;;4.25;82.70;101418.92;1680618;84;21414;-76
2021/10/14 02:57:39;;;;;;;10.68;7.75;;;;;;;4.26;82.71;101415.12;1690471;83;21421;-76
2021/10/14 03:00:07;;;;;;;12.80;8.00;;;;;;;4.28;82.71;101415.16;1654257;85;20970;-76
2021/10/14 03:02:33;;;;;;;9.98;8.18;;;;;;;4.30;82.71;101413.49;1684097;84;20877;-76
2021/10/14 03:04:59;;;;;;;11.75;8.13;;;;;;;4.30;82.74;101409.24;1653098;85;21379;-76
2021/10/14 03:07:25;;;;;;;10.72;7.37;;;;;;;4.32;82.75;101406.30;1644022;86;21399;-76
2021/10/14 03:09:51;;;;;;;10.80;7.90;;;;;;;4.34;82.76;101405.05;1653679;85;21419;-76
2021/10/14 03:12:17;;;;;;;12.65;8.70;;;;;;;4.35;82.76;101398.23;1652986;85;20930;-76
2021/10/14 03:14:44;;;;;;;;;;;;;;;4.37;82.80;101395.30;1655398;85;21391;-76
2021/10/14 03:17:10;;;;;;;13.43;8.45;;;;;;;4.38;82.92;101395.74;1681022;85;20717;-76
2021/10/14 03:19:37;;;;;;;13.68;8.73;;;;;;;4.40;82.86;101402.63;1680873;84;21479;-76
2021/10/14 03:22:04;;;;;;;11.97;8.50;;;;;;;4.41;82.85;101391.55;1684757;83;20941;-76
2021/10/14 03:24:30;;;;;;;11.65;8.93;;;;;;;4.43;82.89;101395.02;1698503;83;21418;-76
2021/10/14 03:26:56;;;;;;;12.28;9.23;;;;;;;4.46;82.84;101391.66;1653030;85;21360;-76
2021/10/14 03:29:23;;;;;;;13.98;9.13;;;;;;;4.47;82.86;101390.82;1691790;83;21454;-76
2021/10/14 03:31:49;;;;;;;11.05;8.78;;;;;;;4.47;82.86;101389.13;1670590;83;21430;-76
2021/10/14 03:34:23;;;;;;;11.50;8.65;;;;;;;4.47;82.84;101391.69;1685760;83;21458;-76
2021/10/14 03:36:49;;;;;;;12.78;9.83;;;;;;;4.49;82.85;101391.72;1684661;83;21406;-76
2021/10/14 03:39:15;;;;;;;13.03;9.95;;;;;;;4.50;82.92;101398.16;1695819;83;21402;-76
2021/10/14 03:41:42;;;;;;;14.28;9.13;;;;;;;4.52;82.91;101398.19;1701037;83;21393;-76
2021/10/14 03:44:08;;;;;;;12.85;8.38;;;;;;;4.53;82.95;101394.38;1698277;82;21414;-76
2021/10/14 03:46:34;;;;;;;11.43;8.90;;;;;;;4.56;83.00;101400.84;1695822;83;21524;-76
2021/10/14 03:49:00;;;;;;;13.70;9.07;;;;;;;4.58;82.99;101388.07;1693873;84;20870;-76
2021/10/14 03:51:27;;;;;;;12.10;9.53;;;;;;;4.50;83.00;101373.83;1696877;83;21556;-76
2021/10/14 03:53:53;;;;;;;11.97;8.80;;;;;;;4.61;83.01;101385.16;1734058;82;20977;-76
2021/10/14 03:56:19;;;;;;;14.37;10.00;;;;;;;4.64;83.00;101388.20;1722525;82;20960;-76
2021/10/14 03:58:45;;;;;;;12.80;9.25;;;;;;;4.66;83.01;101391.66;1719325;82;21682;-76
2021/10/14 04:01:11;;;;;;;13.95;9.45;;;;;;;4.68;83.04;101390.41;1706737;83;21593;-76
2021/10/14 04:03:37;;;;;;;13.83;8.80;;;;;;;4.70;83.07;101389.99;1720910;82;21646;-76
2021/10/14 04:06:03;;;;;;;14.53;8.88;;;;;;;4.72;83.05;101392.17;1683391;84;21469;-76
2021/10/14 04:08:29;;;;;;;12.17;8.53;;;;;;;4.74;83.06;101395.63;1727355;82;20873;-76
2021/10/14 04:10:55;;;;;;;11.08;7.90;;;;;;;4.76;83.10;101400.36;1679991;84;21077;-76
2021/10/14 04:13:24;;;;;;;15.38;8.83;;;;;;;4.78;83.07;101393.16;1712536;82;21555;-76
2021/10/14 04:15:50;;;;;;;11.97;8.30;;;;;;;4.79;83.07;101397.45;1716878;82;20892;-76
2021/10/14 04:18:16;;;;;;;11.10;8.87;;;;;;;4.70;83.14;101372.92;1688467;84;21478;-76
2021/10/14 04:20:42;;;;;;;14.05;9.88;;;;;;;4.82;83.06;101389.82;1688726;84;21638;-76
2021/10/14 04:23:08;;;;;;;12.60;8.90;;;;;;;4.84;83.10;101386.01;1675346;84;20918;-76
2021/10/14 04:25:35;;;;;;;14.50;9.55;;;;;;;4.85;83.11;101387.73;1715286;82;21469;-76
2021/10/14 04:28:02;;;;;;;13.03;10.40;;;;;;;4.84;83.09;101388.16;1676795;83;21073;-76
2021/10/14 04:30:29;;;;;;;12.90;9.73;;;;;;;4.86;83.12;101388.19;1711542;82;21112;-76
2021/10/14 04:32:55;;;;;;;15.83;10.45;;;;;;;4.87;83.14;101385.66;1683801;83;21602;-76
2021/10/14 04:35:23;;;;;;;15.30;11.48;;;;;;;4.89;83.16;101383.98;1724539;82;21040;-76
2021/10/14 04:37:49;;;;;;;15.95;10.75;;;;;;;4.92;83.17;101394.71;1694728;83;21440;-76
2021/10/14 04:40:15;;;;;;;15.40;10.80;;;;;;;4.93;83.13;101386.19;1723043;82;20850;-76
2021/10/14 04:42:41;;;;;;;20.10;11.33;;;;;;;4.93;83.17;101384.91;1719176;82;21130;-76
2021/10/14 04:45:08;;;;;;;16.32;9.33;;;;;;;4.95;83.18;101384.52;1697557;83;20968;-76
2021/10/14 04:47:34;;;;;;;17.87;10.90;;;;;;;4.95;83.18;101388.37;1697740;83;22029;-76
2021/10/14 04:50:00;;;;;;;15.05;10.78;;;;;;;4.98;83.18;101390.98;1727072;82;20902;-76
2021/10/14 04:52:26;;;;;;;16.40;10.53;;;;;;;4.99;83.21;101388.88;1678000;83;20960;-76
2021/10/14 04:54:52;;;;;;;14.87;10.23;;;;;;;5.01;83.20;101389.77;1624335;82;20901;-76
2021/10/14 04:57:18;;;;;;;15.53;10.17;;;;;;;5.02;83.23;101377.81;1606159;88;20930;-76
2021/10/14 04:59:44;;;;;;;13.90;10.10;;;;;;;5.03;83.23;101375.70;1605581;88;21487;-76
2021/10/14 05:02:10;;;;;;;15.10;9.73;;;;;;;5.04;83.23;101374.86;1616466;87;20991;-76
2021/10/14 05:04:36;;;;;;;14.80;10.20;;;;;;;5.05;83.22;101371.05;1596458;88;20965;-76
2021/10/14 05:07:03;;;;;;;13.70;9.80;;;;;;;5.06;83.23;101362.52;1602685;88;20942;-76
2021/10/14 05:09:29;;;;;;;11.03;8.50;;;;;;;5.06;83.25;101366.37;1606540;88;20904;-76
2021/10/14 05:11:55;;;;;;;13.50;9.87;;;;;;;5.09;83.25;101371.97;1606036;88;20992;-76
2021/10/14 05:14:21;;;;;;;15.57;8.97;;;;;;;5.09;83.27;101370.27;1593172;88;20926;-76
2021/10/14 05:16:47;;;;;;;14.10;9.40;;;;;;;5.10;83.26;101369.44;1601268;88;21088;-76
2021/10/14 05:19:14;;;;;;;14.47;9.40;;;;;;;5.11;83.30;101375.00;1605645;87;21067;-76
2021/10/14 05:21:40;;;;;;;18.15;10.13;;;;;;;5.12;83.27;101375.45;1614091;87;21114;-76
2021/10/14 05:24:06;;;;;;;13.48;9.13;;;;;;;5.13;83.29;101373.34;1606125;87;21065;-76
2021/10/14 05:26:33;;;;;;;15.28;9.25;;;;;;;5.14;83.31;101371.64;1597228;88;21059;-76
2021/10/14 05:29:00;;;;;;;16.48;10.93;;;;;;;5.15;83.28;101369.52;1612644;87;20910;-76
2021/10/14 05:31:29;;;;;;;16.50;9.95;;;;;;;5.16;83.32;101373.81;1566658;90;20933;-75
2021/10/14 05:33:56;;;;;;;22.17;10.70;;;;;;;5.17;83.31;101372.55;1590449;88;20942;-75
2021/10/14 05:36:22;;;;;;;;;;;;;;;5.18;83.34;101365.31;1591704;88;20970;-75
2021/10/14 05:38:48;;;;;;;17.92;10.43;;;;;;;5.20;83.45;101369.19;1591197;88;20134;-75
2021/10/14 05:41:14;;;;;;;14.63;9.90;;;;;;;5.21;83.37;101373.44;1593496;88;20910;-75
2021/10/14 05:43:41;;;;;;;20.10;10.18;;;;;;;5.22;83.36;101369.63;1597845;88;20980;-75
2021/10/14 05:46:07;;;;;;;14.20;8.88;;;;;;;5.23;83.38;101368.79;1604789;87;20962;-75
2021/10/14 05:48:34;;;;;;;16.02;10.00;;;;;;;5.25;83.40;101368.81;1593416;88;21409;-75
2021/10/14 05:51:07;;;;;;;14.40;9.08;;;;;;;5.25;83.39;101361.98;1603904;87;21077;-75
2021/10/14 05:53:33;;;;;;;14.60;9.23;;;;;;;5.27;83.39;101370.57;1594896;88;21013;-76
2021/10/14 05:55:59;;;;;;;14.27;8.70;;;;;;;5.28;83.36;101373.58;1589644;88;21672;-76
2021/10/14 05:58:25;;;;;;;11.70;9.00;;;;;;;5.32;83.42;101375.78;1596003;88;20861;-76
2021/10/14 06:00:51;;;;;;;13.97;9.43;;;;;;;5.35;83.44;101371.12;1593534;88;21009;-76
2021/10/14 06:03:20;;;;;;;13.58;8.48;;;;;;;5.36;83.43;101368.59;1590265;88;21126;-76
2021/10/14 06:05:46;;;;;;;13.62;8.88;;;;;;;5.38;83.42;101371.17;1590762;88;21124;-76
2021/10/14 06:08:13;;;;;;;15.80;9.85;;;;;;;5.41;83.44;101371.23;1599186;88;21143;-76
2021/10/14 06:10:39;;;;;;;10.45;8.45;;;;;;;5.42;83.49;101367.83;1581391;89;21176;-76
2021/10/14 06:13:06;;;;;;;13.70;8.35;;;;;;;5.46;83.48;101365.77;1592562;88;22379;-76
2021/10/14 06:15:34;;;;;;;12.40;8.53;;;;;;;5.47;83.44;101370.92;1590718;88;21083;-76
2021/10/14 06:18:00;;;;;;;12.03;9.33;;;;;;;5.50;83.47;101370.11;1605660;88;22327;-76
2021/10/14 06:20:26;;;;;;;12.70;8.58;;;;;;;5.53;83.52;101372.72;1594258;88;21151;-76
2021/10/14 06:22:52;;;;;;;11.08;8.15;;;;;;;5.55;83.53;101372.33;1600092;87;21133;-76
2021/10/14 06:25:19;;;;;;;14.03;9.05;;;;;;;5.57;83.53;101369.37;1587888;88;21116;-76
2021/10/14 06:27:45;;;;;;;13.90;9.33;;;;;;;5.61;83.53;101377.56;1590896;88;21557;-76
2021/10/14 06:30:12;;;;;;;16.17;9.35;;;;;;;5.64;83.54;101381.05;1588257;88;21179;-76
2021/10/14 06:32:38;;;;;;;11.85;9.73;;;;;;;5.68;83.56;101382.37;1589726;88;21561;-76
2021/10/14 06:35:06;;;;;;;13.08;9.08;;;;;;;5.70;83.57;101382.84;1598212;88;20949;-73
2021/10/14 06:37:32;;;;;;;11.05;8.98;;;;;;;5.75;83.62;101376.47;1607426;88;20983;-73
2021/10/14 06:39:59;;;;;;;12.15;10.70;;;;;;;5.79;83.58;101378.25;1577472;89;21032;-73
2021/10/14 06:42:25;;;;;;;13.75;9.68;;;;;;;5.82;83.58;101374.03;1625325;87;20951;-73
2021/10/14 06:44:54;;;;;;;12.70;9.60;;;;;;;5.85;83.60;101372.80;1604012;88;20997;-73
2021/10/14 06:47:23;;;;;;;11.85;8.80;;;;;;;5.89;83.62;101365.62;1616773;88;20979;-73
2021/10/14 06:49:49;;;;;;;12.67;8.77;;;;;;;5.92;83.59;101364.38;1589855;88;21682;-73
2021/10/14 06:52:16;;;;;;;13.45;9.13;;;;;;;5.96;83.58;101367.86;1602971;87;21041;-73
2021/10/14 06:54:43;;;;;;;11.90;9.08;;;;;;;6.00;83.66;101361.92;1587306;88;20970;-73
2021/10/14 06:57:10;;;;;;;12.80;9.13;;;;;;;6.06;83.71;101368.44;1593381;88;20894;-73
2021/10/14 06:59:36;;;;;;;11.35;9.00;;;;;;;6.10;83.64;101376.63;1574734;88;20949;-73
2021/10/14 07:02:07;;;;;;;14.33;9.48;;;;;;;6.14;83.62;101372.40;1586603;88;21061;-73
2021/10/14 07:04:33;;;;;;;13.33;10.63;;;;;;;6.18;83.64;101376.73;1600440;88;21490;-73
2021/10/14 07:06:59;;;;;;;13.05;8.93;;;;;;;6.21;83.65;101378.93;1570722;88;21002;-73
2021/10/14 07:09:27;;;;;;;12.37;9.35;;;;;;;6.23;83.65;101374.67;1598262;88;20986;-73
2021/10/14 07:11:59;;;;;;;14.17;9.27;;;;;;;6.27;83.70;101373.84;1596470;88;21708;-76
2021/10/14 07:14:25;;;;;;;11.70;9.53;;;;;;;6.31;83.67;101376.89;1599501;88;20985;-75
2021/10/14 07:16:52;;;;;;;11.78;9.30;;;;;;;6.35;83.69;101380.38;1599639;88;21005;-75
2021/10/14 07:19:19;;;;;;;15.30;9.55;;;;;;;6.39;83.65;101380.86;1591459;88;21028;-75
2021/10/14 07:21:45;;;;;;;13.35;9.40;;;;;;;6.43;83.69;101377.91;1574917;90;20993;-75
2021/10/14 07:24:11;;;;;;;11.38;9.35;;;;;;;6.45;83.70;101374.52;1594688;88;20954;-76
2021/10/14 07:26:38;;;;;;;15.20;10.30;;;;;;;6.48;83.71;101377.13;1573540;88;21539;-76
2021/10/14 07:29:04;;;;;;;15.78;9.58;;;;;;;6.51;83.70;101381.44;1596541;88;21013;-76
2021/10/14 07:31:32;;;;;;;11.83;9.77;;;;;;;6.55;83.67;101383.20;1572795;88;21668;-76
2021/10/14 07:33:58;;;;;;;11.55;9.05;;;;;;;6.55;83.63;101375.08;1593489;87;20995;-76
2021/10/14 07:36:30;;;;;;;14.47;9.90;;;;;;;6.58;83.69;101379.39;1571817;89;21009;-76
2021/10/14 07:38:56;;;;;;;13.53;9.93;;;;;;;6.63;83.57;101372.18;1590045;89;20958;-72
2021/10/14 07:41:22;;;;;;;15.50;9.63;;;;;;;6.63;83.57;101372.18;1592690;88;21048;-72
2021/10/14 07:43:50;;;;;;;13.93;9.53;;;;;;;6.68;83.77;101379.08;1592805;88;21590;-72
2021/10/14 07:46:16;;;;;;;15.45;10.38;;;;;;;6.71;83.77;101373.98;1586909;89;21110;-72
2021/10/14 07:48:42;;;;;;;13.43;10.03;;;;;;;6.74;83.75;101372.31;1587869;88;21153;-72
2021/10/14 07:51:08;;;;;;;15.00;10.58;;;;;;;6.77;83.79;101374.88;1589265;88;21166;-72
2021/10/14 07:53:34;;;;;;;13.23;10.53;;;;;;;6.81;83.81;101373.21;1595945;88;22093;-72
2021/10/14 07:56:01;;;;;;;13.33;9.83;;;;;;;6.85;83.81;101373.69;1584865;88;21021;-72
2021/10/14 07:58:27;;;;;;;18.85;10.65;;;;;;;6.90;83.84;101373.31;1588049;89;21783;-72
2021/10/14 08:00:53;;;;;;;15.27;9.50;;;;;;;6.95;83.81;101375.52;1591186;88;20953;-72
2021/10/14 08:03:21;;;;;;;14.05;10.00;;;;;;;7.00;83.78;101369.14;1590545;89;21190;-72
2021/10/14 08:05:47;;;;;;;13.70;9.70;;;;;;;7.03;83.80;101365.31;1587476;88;21422;-73
2021/10/14 08:08:13;;;;;;;14.07;9.73;;;;;;;7.07;83.78;101358.94;1592660;88;21589;-72
2021/10/14 08:10:39;;;;;;;14.20;9.97;;;;;;;7.10;83.78;101366.69;1595337;88;21320;-72
2021/10/14 08:13:05;;;;;;;16.32;10.00;;;;;;;7.16;83.84;101360.73;1557888;89;21103;-72
2021/10/14 08:15:31;;;;;;;18.37;10.18;;;;;;;7.23;83.86;101354.81;1596989;88;21129;-72
2021/10/14 08:17:57;;;;;;;14.50;10.43;;;;;;;7.29;83.78;101362.13;1587414;89;21094;-72
2021/10/14 08:20:24;;;;;;;13.62;10.15;;;;;;;7.33;83.81;101359.59;1587931;89;21084;-72
2021/10/14 08:22:51;;;;;;;15.70;10.13;;;;;;;7.38;83.83;101357.91;1583790;89;21085;-72
2021/10/14 08:25:17;;;;;;;13.98;10.35;;;;;;;7.45;83.85;101360.98;1595102;89;21139;-72
2021/10/14 08:27:44;;;;;;;19.37;10.20;;;;;;;7.48;83.80;101362.30;1589243;89;21088;-72
2021/10/14 08:30:13;;;;;;;13.38;9.78;;;;;;;7.52;83.85;101365.33;1578756;88;21565;-72
2021/10/14 08:32:39;;;;;;;13.00;10.10;;;;;;;7.53;83.88;101361.91;1592904;88;21016;-72
2021/10/14 08:35:06;;;;;;;;;;;;;;;7.61;83.82;101364.12;1588926;88;20910;-72
2021/10/14 08:37:32;;;;;;;12.93;9.85;;;;;;;7.63;83.82;101360.72;1592186;88;20134;-72
2021/10/14 08:39:58;;;;;;;16.60;10.32;;;;;;;7.66;83.81;101359.02;1589628;88;21005;-72
2021/10/14 08:42:25;;;;;;;17.15;10.95;;;;;;;7.72;83.85;101352.63;1603196;88;20970;-72
2021/10/14 08:44:53;;;;;;;16.12;11.00;;;;;;;7.77;83.83;101354.81;1598882;88;20987;-72
2021/10/14 08:47:19;;;;;;;13.90;10.80;;;;;;;7.81;83.83;101347.09;1586862;88;20974;-72
2021/10/14 08:49:48;;;;;;;13.60;10.75;;;;;;;7.86;83.84;101342.84;1591784;88;20962;-72
2021/10/14 08:52:16;;;;;;;14.33;10.58;;;;;;;7.91;83.83;101342.87;1598949;88;21450;-72
2021/10/14 08:54:43;;;;;;;19.82;10.05;;;;;;;7.96;83.80;101336.03;1577280;88;21402;-72
2021/10/14 08:57:09;;;;;;;;;;;;;;;7.99;83.81;101341.20;1604280;88;20959;-72
2021/10/14 08:59:37;;;;;;;15.90;10.03;;;;;;;8.03;83.83;101339.52;1599065;88;20223;-72
2021/10/14 09:02:14;;;;;;;17.23;11.03;;;;;;;8.05;83.79;101332.23;1602131;88;21545;-72
2021/10/14 09:04:57;;;;;;;15.23;11.60;;;;;;;8.08;83.84;101327.52;1602233;88;21038;-72
2021/10/14 09:07:30;;;;;;;15.45;10.53;;;;;;;8.15;83.86;101320.27;1584434;88;21481;-72
2021/10/14 09:10:01;;;;;;;17.17;11.35;;;;;;;8.25;83.95;101319.03;1588902;88;20916;-72
2021/10/14 09:12:37;;;;;;;14.98;11.03;;;;;;;8.33;83.86;101319.06;1586528;88;20984;-72
2021/10/14 09:15:14;;;;;;;18.55;12.50;;;;;;;8.40;83.90;101321.25;1591895;88;21066;-72
2021/10/14 09:17:53;;;;;;;14.90;11.83;;;;;;;8.44;83.80;101308.81;1595405;88;20915;-72
2021/10/14 09:20:27;;;;;;;19.25;13.25;;;;;;;8.47;83.84;101307.10;1599147;88;20949;-72
2021/10/14 09:23:07;;;;;;;18.05;12.50;;;;;;;8.51;83.82;101304.11;1592919;88;21561;-72
2021/10/14 09:25:46;;;;;;;17.80;11.55;;;;;;;8.52;83.81;101306.69;1597867;88;20948;-72
2021/10/14 09:28:22;;;;;;;17.23;12.05;;;;;;;8.54;83.75;101299.83;1598327;88;20991;-72
2021/10/14 09:31:02;;;;;;;16.50;11.95;;;;;;;8.55;83.76;101295.53;1606039;88;20981;-72
2021/10/14 09:33:36;;;;;;;17.75;11.08;;;;;;;8.60;83.83;101284.81;1591311;88;20906;-72
2021/10/14 09:36:23;;;;;;;17.00;11.65;;;;;;;8.64;83.81;101285.25;1606507;85;20950;-72
2021/10/14 09:39:03;;;;;;;19.27;12.25;;;;;;;8.67;83.76;101294.71;1593900;85;20913;-72
2021/10/14 09:41:38;;;;;;;16.17;11.78;;;;;;;8.67;83.70;101275.38;1588815;88;20982;-72
2021/10/14 09:44:13;;;;;;;11.50;10.38;;;;;;;8.66;83.75;101264.63;1593710;88;20917;-72
2021/10/14 09:46:43;;;;;;;17.02;11.78;;;;;;;8.68;83.79;101281.83;1590156;88;21009;-72
2021/10/14 09:49:23;;;;;;;18.48;11.88;;;;;;;8.69;83.79;101289.12;1592527;88;20938;-73
2021/10/14 09:51:52;;;;;;;18.32;11.95;;;;;;;8.68;83.76;101288.27;1589195;88;21032;-73
2021/10/14 09:54:18;;;;;;;19.32;12.93;;;;;;;8.68;83.75;101285.69;1581305;88;21007;-73
2021/10/14 09:56:44;;;;;;;16.27;12.25;;;;;;;8.71;83.81;101279.69;1615217;87;20973;-73
2021/10/14 09:59:11;;;;;;;16.80;12.70;;;;;;;8.76;83.88;101277.55;1603860;87;20945;-76
2021/10/14 10:01:40;;;;;;;17.55;12.58;;;;;;;8.80;83.86;101283.14;1599333;88;20945;-73
2021/10/14 10:04:07;;;;;;;14.80;12.58;;;;;;;8.80;83.82;101270.68;1593284;88;20974;-76
2021/10/14 10:06:36;;;;;;;15.85;13.22;;;;;;;8.80;83.82;101265.09;1596114;88;20941;-77
2021/10/14 10:09:17;;;;;;;16.57;13.45;;;;;;;8.82;83.82;101261.23;1597059;88;20953;-77
2021/10/14 10:11:51;;;;;;;20.00;14.38;;;;;;;8.83;83.85;101265.53;1591949;88;20938;-77
2021/10/14 10:14:23;;;;;;;19.00;14.93;;;;;;;8.83;83.78;101267.68;1596662;88;20941;-77
2021/10/14 10:16:58;;;;;;;16.90;14.90;;;;;;;8.82;83.75;101269.83;1593013;88;20982;-77
2021/10/14 10:19:45;;;;;;;17.80;15.95;;;;;;;8.82;83.77;101261.23;1589796;88;20929;-77
2021/10/14 10:22:31;;;;;;;20.20;15.98;;;;;;;8.83;83.79;101262.95;1599881;88;21090;-77
2021/10/14 10:24:57;;;;;;;19.52;15.15;;;;;;;8.85;83.80;101271.52;1591066;88;20951;-77
2021/10/14 10:27:34;;;;;;;20.30;14.65;;;;;;;8.85;83.79;101263.78;1589921;88;20942;-76
2021/10/14 10:30:00;;;;;;;18.30;16.42;;;;;;;8.85;83.78;101254.75;1573066;88;20998;-76
2021/10/14 10:32:27;;;;;;;17.87;15.93;;;;;;;8.85;83.74;101258.19;1596679;88;20937;-76
2021/10/14 10:35:03;;;;;;;22.43;17.03;;;;;;;8.86;83.81;101249.59;1597234;88;20995;-77
2021/10/14 10:37:41;;;;;;;20.00;16.70;;;;;;;8.90;83.81;101250.46;1601211;88;21262;-77
2021/10/14 10:40:17;;;;;;;;;;;;;;;8.90;83.76;101245.30;1593267;88;20902;-77
2021/10/14 10:43:13;;;;;;;21.15;16.93;;;;;;;8.92;83.90;101241.00;1592377;88;20137;-77
2021/10/14 10:45:54;;;;;;;18.80;16.07;;;;;;;8.94;83.80;101240.15;1572555;89;21446;-77
2021/10/14 10:48:38;;;;;;;18.02;14.73;;;;;;;8.99;83.78;101240.58;1611684;87;20985;-77
2021/10/14 10:51:06;;;;;;;18.20;15.50;;;;;;;8.99;83.76;101234.13;1595549;88;20886;-78
2021/10/14 10:53:45;;;;;;;17.67;15.75;;;;;;;8.99;83.74;101236.71;1599239;88;20931;-78
2021/10/14 10:56:33;;;;;;;18.35;16.42;;;;;;;8.99;83.80;101229.84;1563430;89;21389;-77
2021/10/14 10:59:03;;;;;;;18.00;16.00;;;;;;;9.02;83.81;101229.84;1609892;87;20986;-77
2021/10/14 11:01:30;;;;;;;16.30;14.65;;;;;;;9.04;83.85;101235.86;1596298;87;20945;-77
2021/10/14 11:04:04;;;;;;;16.37;13.72;;;;;;;9.07;83.85;101233.28;1596104;88;20941;-77
2021/10/14 11:06:34;;;;;;;14.07;12.63;;;;;;;9.11;83.83;101235.43;1594839;88;21527;-77
2021/10/14 11:09:04;;;;;;;14.15;12.13;;;;;;;9.13;83.82;101227.26;1595554;88;20910;-77
2021/10/14 11:11:32;;;;;;;12.37;10.50;;;;;;;9.16;83.84;101232.42;1596136;88;20950;-77
2021/10/14 11:13:59;;;;;;;11.50;10.40;;;;;;;9.18;83.80;101228.98;1594286;87;20970;-77
2021/10/14 11:16:27;;;;;;;;;;;;;;;9.19;83.80;101224.25;1594286;88;20922;-77
2021/10/14 11:18:59;;;;;;;13.15;9.45;;;;;;;9.22;83.82;101225.53;1594343;88;20141;-77
2021/10/14 11:21:25;;;;;;;10.65;9.45;;;;;;;9.23;83.80;101221.23;1591135;88;21497;-77
2021/10/14 11:23:55;;;;;;;13.03;9.28;;;;;;;9.25;83.78;101221.66;1590962;88;20925;-77
2021/10/14 11:26:42;;;;;;;9.53;8.35;;;;;;;9.27;83.78;101216.50;1594005;88;20938;-77
2021/10/14 11:29:18;;;;;;;9.58;8.68;;;;;;;9.27;83.76;101226.39;1594425;88;21583;-77